Terminal Aerodrome Forecast
Issued by NWS Albany, NY

Home | Current Version | Previous Version | Text Only | Print | Product List | Glossary On
Versions: 1 2 3 4 5 6 7 8 9 10 11 12 13 14 15 16 17 18 19 20 21 22 23 24 25 26
000
FTUS41 KALY 301120
TAFGFL
TAF
KGFL 301120Z 3012/3112 21007KT P6SM SCT120 SCT250
     FM301400 20012G18KT P6SM SCT050 BKN120
     FM302100 21008G14KT P6SM VCSH OVC050 PROB30 3021/3103
      VRB15G25KT 2SM TSRA OVC015CB
     FM310300 21008KT 4SM -SHRA BR OVC025
     FM310900 36008KT 3SM -SHRA BR OVC008=

USA.gov is the U.S. government's official web portal to all federal, state and local government web resources and services.